createdAt,value
2022-08-17T00:00:15.766Z,3.90
2022-08-17T00:01:12.603Z,3.80
2022-08-17T00:02:25.481Z,3.80
2022-08-17T00:03:13.660Z,3.80
2022-08-17T00:04:11.825Z,3.50
2022-08-17T00:05:11.508Z,3.80
2022-08-17T00:06:11.503Z,3.80
2022-08-17T00:07:11.488Z,3.40
2022-08-17T00:08:11.488Z,3.50
2022-08-17T00:09:11.495Z,3.70
2022-08-17T00:10:12.452Z,3.40
2022-08-17T00:11:11.435Z,3.30
2022-08-17T00:12:51.509Z,3.40
2022-08-17T00:13:12.416Z,3.30
2022-08-17T00:14:11.392Z,4.00
2022-08-17T00:15:11.382Z,3.50
2022-08-17T00:16:11.366Z,3.30
2022-08-17T00:17:11.379Z,3.20
2022-08-17T00:19:00.983Z,3.70
2022-08-17T00:19:12.333Z,3.20
2022-08-17T00:20:11.313Z,3.30
2022-08-17T00:21:11.306Z,3.20
2022-08-17T00:22:31.423Z,3.20
2022-08-17T00:23:12.273Z,3.40
2022-08-17T00:24:11.266Z,3.20
2022-08-17T00:25:11.264Z,3.70
2022-08-17T00:26:14.233Z,3.80
2022-08-17T00:27:11.226Z,3.50
2022-08-17T00:28:11.222Z,3.60
2022-08-17T00:29:11.195Z,3.80
2022-08-17T00:30:12.201Z,3.60
2022-08-17T00:31:11.168Z,3.70
2022-08-17T00:33:10.813Z,3.90
2022-08-17T00:33:16.542Z,3.60
2022-08-17T00:34:11.126Z,3.60
2022-08-17T00:35:11.116Z,3.60
2022-08-17T00:36:11.107Z,3.80
2022-08-17T00:37:11.103Z,3.80
2022-08-17T00:38:11.084Z,3.50
2022-08-17T00:39:11.057Z,3.50
2022-08-17T00:40:11.141Z,3.60
2022-08-17T00:41:11.042Z,4.00
2022-08-17T00:42:11.046Z,3.30
2022-08-17T00:43:11.483Z,3.20
2022-08-17T00:44:11.005Z,3.70
2022-08-17T00:45:10.984Z,3.80
2022-08-17T00:46:10.984Z,3.30
2022-08-17T00:47:10.987Z,3.40
2022-08-17T00:48:23.834Z,3.20
2022-08-17T00:49:11.934Z,3.00
2022-08-17T00:50:10.940Z,3.10
2022-08-17T00:51:10.918Z,3.30
2022-08-17T00:52:12.068Z,3.10
2022-08-17T00:53:10.876Z,3.20
2022-08-17T00:54:10.931Z,2.80
2022-08-17T00:55:10.855Z,3.80
2022-08-17T00:56:10.844Z,3.70
2022-08-17T00:57:10.854Z,3.50
2022-08-17T00:58:10.827Z,3.10
2022-08-17T00:59:10.809Z,3.90
2022-08-17T01:00:10.803Z,3.60
2022-08-17T01:01:10.842Z,3.90
2022-08-17T01:02:10.783Z,3.80
2022-08-17T01:03:10.757Z,3.60
2022-08-17T01:04:10.746Z,3.50
2022-08-17T01:05:10.733Z,3.80
2022-08-17T01:06:10.724Z,3.80
2022-08-17T01:07:10.705Z,4.10
2022-08-17T01:08:10.684Z,3.70
2022-08-17T01:09:10.684Z,3.60
2022-08-17T01:10:58.521Z,3.70
2022-08-17T01:11:11.655Z,9.10
2022-08-17T01:12:10.644Z,10.10
2022-08-17T01:13:10.625Z,11.90
2022-08-17T01:14:10.608Z,11.70
2022-08-17T01:15:10.606Z,11.20
2022-08-17T01:16:10.592Z,23.10
2022-08-17T01:17:10.607Z,21.60
2022-08-17T01:18:10.575Z,22.90
2022-08-17T01:19:10.557Z,11.60
2022-08-17T01:20:10.525Z,18.80
2022-08-17T01:21:10.533Z,18.50
2022-08-17T01:22:10.516Z,8.40
2022-08-17T01:23:10.496Z,17.40
2022-08-17T01:24:11.528Z,13.10
2022-08-17T01:25:10.482Z,11.60
2022-08-17T01:26:10.447Z,12.20
2022-08-17T01:27:10.845Z,11.40
2022-08-17T01:28:10.435Z,12.90
2022-08-17T01:29:11.424Z,13.40
2022-08-17T01:30:58.255Z,14.70
2022-08-17T01:31:11.397Z,9.10
2022-08-17T01:32:10.376Z,7.40
2022-08-17T01:33:10.369Z,13.80
2022-08-17T01:34:10.350Z,12.90
2022-08-17T01:35:10.346Z,10.10
2022-08-17T01:36:10.335Z,24.10
2022-08-17T01:37:10.324Z,8.60
2022-08-17T01:38:10.300Z,8.50
2022-08-17T01:39:10.287Z,10.00
2022-08-17T01:40:10.379Z,9.10
2022-08-17T01:41:10.270Z,10.60
2022-08-17T01:42:10.290Z,15.00
2022-08-17T01:43:10.236Z,16.10
2022-08-17T01:44:10.231Z,12.20
2022-08-17T01:45:10.221Z,10.30
2022-08-17T01:46:10.186Z,14.00
2022-08-17T01:47:10.196Z,13.40
2022-08-17T01:48:10.169Z,13.60
2022-08-17T01:49:10.166Z,14.60
2022-08-17T01:50:10.139Z,13.90
2022-08-17T01:51:10.128Z,13.00
2022-08-17T01:52:10.128Z,12.40
2022-08-17T01:53:10.106Z,12.40
2022-08-17T01:54:10.092Z,13.00
2022-08-17T01:55:10.083Z,13.00
2022-08-17T01:56:10.079Z,12.10
2022-08-17T01:57:10.059Z,10.60
2022-08-17T01:58:10.041Z,11.50
2022-08-17T01:59:10.037Z,11.20
2022-08-17T02:00:10.021Z,14.60
2022-08-17T02:01:10.107Z,12.20
2022-08-17T02:02:09.996Z,13.70
2022-08-17T02:03:09.979Z,12.70
2022-08-17T02:04:09.970Z,11.90
2022-08-17T02:05:09.951Z,11.80
2022-08-17T02:06:27.112Z,15.40
2022-08-17T02:07:10.929Z,11.70
2022-08-17T02:08:09.899Z,14.80
2022-08-17T02:09:16.620Z,10.50
2022-08-17T02:10:19.806Z,11.90
2022-08-17T02:11:11.618Z,9.80
2022-08-17T02:12:38.515Z,13.70
2022-08-17T02:13:10.843Z,13.00
2022-08-17T02:14:09.830Z,8.80
2022-08-17T02:15:09.812Z,8.80
2022-08-17T02:16:09.807Z,8.70
2022-08-17T02:17:09.807Z,8.10
2022-08-17T02:18:09.778Z,12.00
2022-08-17T02:19:09.786Z,12.50
2022-08-17T02:20:09.751Z,15.20
2022-08-17T02:21:09.740Z,16.10
2022-08-17T02:22:09.728Z,15.60
2022-08-17T02:23:09.719Z,13.90
2022-08-17T02:24:09.753Z,15.50
2022-08-17T02:25:09.688Z,14.20
2022-08-17T02:26:09.668Z,10.50
2022-08-17T02:27:10.690Z,14.20
2022-08-17T02:28:09.638Z,16.20
2022-08-17T02:29:09.647Z,13.50
2022-08-17T02:30:59.028Z,11.20
2022-08-17T02:31:10.613Z,12.50
2022-08-17T02:32:09.603Z,13.20
2022-08-17T02:33:10.583Z,13.00
2022-08-17T02:34:09.571Z,13.30
2022-08-17T02:35:09.548Z,13.70
2022-08-17T02:36:09.561Z,14.00
2022-08-17T02:37:09.549Z,13.70
2022-08-17T02:38:09.509Z,14.00
2022-08-17T02:39:09.503Z,12.20
2022-08-17T02:40:09.556Z,13.60
2022-08-17T02:41:09.494Z,13.20
2022-08-17T02:42:09.479Z,13.60
2022-08-17T02:43:09.447Z,16.20
2022-08-17T02:44:09.429Z,15.20
2022-08-17T02:45:09.437Z,14.40
2022-08-17T02:46:09.410Z,15.40
2022-08-17T02:47:09.419Z,12.50
2022-08-17T02:48:09.390Z,14.30
2022-08-17T02:49:09.372Z,15.10
2022-08-17T02:50:09.368Z,14.50
2022-08-17T02:51:09.349Z,17.70
2022-08-17T02:52:09.339Z,17.60
2022-08-17T02:53:09.335Z,15.20
2022-08-17T02:54:41.056Z,17.70
2022-08-17T02:55:10.299Z,14.50
2022-08-17T02:56:09.284Z,16.60
2022-08-17T02:57:09.293Z,15.40
2022-08-17T02:58:09.252Z,13.60
2022-08-17T02:59:09.241Z,13.40
2022-08-17T03:00:09.223Z,12.60
2022-08-17T03:01:09.251Z,11.20
2022-08-17T03:02:09.269Z,12.20
2022-08-17T03:03:09.191Z,12.70
2022-08-17T03:04:09.174Z,15.00
2022-08-17T03:05:09.162Z,13.10
2022-08-17T03:06:09.159Z,11.60
2022-08-17T03:07:09.157Z,15.50
2022-08-17T03:08:11.761Z,12.10
2022-08-17T03:09:09.112Z,14.00
2022-08-17T03:10:09.108Z,14.10
2022-08-17T03:11:09.091Z,14.10
2022-08-17T03:12:09.064Z,12.90
2022-08-17T03:13:09.083Z,12.60
2022-08-17T03:14:09.041Z,18.80
2022-08-17T03:15:09.029Z,13.20
2022-08-17T03:16:09.062Z,12.90
2022-08-17T03:17:09.024Z,11.80
2022-08-17T03:18:09.009Z,13.80
2022-08-17T03:19:09.980Z,12.80
2022-08-17T03:20:08.960Z,11.40
2022-08-17T03:21:08.968Z,12.00
2022-08-17T03:22:36.186Z,12.50
2022-08-17T03:23:09.923Z,12.40
2022-08-17T03:24:09.258Z,11.90
2022-08-17T03:25:10.836Z,12.30
2022-08-17T03:26:12.396Z,15.90
2022-08-17T03:27:09.873Z,16.60
2022-08-17T03:28:08.877Z,14.20
2022-08-17T03:29:08.855Z,12.50
2022-08-17T03:30:08.830Z,12.90
2022-08-17T03:31:08.846Z,12.60
2022-08-17T03:32:08.815Z,12.00
2022-08-17T03:33:08.805Z,11.20
2022-08-17T03:34:08.778Z,11.50
2022-08-17T03:35:08.774Z,12.50
2022-08-17T03:36:08.764Z,12.10
2022-08-17T03:37:08.745Z,13.60
2022-08-17T03:38:08.734Z,16.10
2022-08-17T03:39:08.714Z,14.10
2022-08-17T03:40:08.801Z,11.60
2022-08-17T03:41:08.724Z,11.40
2022-08-17T03:42:08.685Z,13.00
2022-08-17T03:43:09.673Z,13.30
2022-08-17T03:44:08.674Z,14.90
2022-08-17T03:45:08.642Z,14.60
2022-08-17T03:46:23.711Z,19.30
2022-08-17T03:47:09.622Z,14.50
2022-08-17T03:48:08.601Z,15.00
2022-08-17T03:49:08.603Z,13.20
2022-08-17T03:50:10.412Z,16.50
2022-08-17T03:51:12.755Z,17.10
2022-08-17T03:52:09.548Z,14.40
2022-08-17T03:53:08.536Z,13.70
2022-08-17T03:54:08.527Z,14.10
2022-08-17T03:55:08.512Z,16.30
2022-08-17T03:56:08.504Z,19.70
2022-08-17T03:57:08.486Z,23.80
2022-08-17T03:58:08.475Z,13.60
2022-08-17T03:59:08.480Z,14.30
2022-08-17T04:00:09.441Z,13.50
2022-08-17T04:01:08.503Z,16.50
2022-08-17T04:02:08.416Z,14.30
2022-08-17T04:03:09.004Z,16.70
2022-08-17T04:04:08.388Z,14.00
2022-08-17T04:05:08.391Z,7.10
2022-08-17T04:06:08.374Z,6.80
2022-08-17T04:07:08.377Z,6.20
2022-08-17T04:08:08.359Z,6.70
2022-08-17T04:09:08.335Z,7.30
2022-08-17T04:10:08.314Z,6.70
2022-08-17T04:11:08.323Z,6.20
2022-08-17T04:12:08.290Z,6.40
2022-08-17T04:13:08.695Z,6.30
2022-08-17T04:14:08.259Z,6.90
2022-08-17T04:15:08.596Z,6.10
2022-08-17T04:16:08.257Z,6.80
2022-08-17T04:17:08.275Z,7.40
2022-08-17T04:18:08.217Z,6.70
2022-08-17T04:19:08.266Z,6.90
2022-08-17T04:20:08.186Z,6.30
2022-08-17T04:21:08.195Z,6.50
2022-08-17T04:22:08.235Z,5.60
2022-08-17T04:23:09.865Z,5.60
2022-08-17T04:24:08.143Z,5.70
2022-08-17T04:25:08.368Z,6.00
2022-08-17T04:26:08.115Z,5.00
2022-08-17T04:27:08.089Z,6.10
2022-08-17T04:28:15.851Z,6.60
2022-08-17T04:29:09.063Z,7.20
2022-08-17T04:30:08.081Z,6.80
2022-08-17T04:31:08.035Z,6.90
2022-08-17T04:32:08.030Z,7.20
2022-08-17T04:33:08.008Z,6.60
2022-08-17T04:34:07.998Z,6.30
2022-08-17T04:35:08.001Z,5.60
2022-08-17T04:36:07.977Z,5.80
2022-08-17T04:37:07.964Z,5.80
2022-08-17T04:38:07.964Z,6.90
2022-08-17T04:39:07.947Z,5.70
2022-08-17T04:40:07.995Z,6.80
2022-08-17T04:41:07.933Z,6.90
2022-08-17T04:42:07.901Z,5.90
2022-08-17T04:43:07.875Z,5.70
2022-08-17T04:44:07.876Z,5.90
2022-08-17T04:45:07.868Z,5.70
2022-08-17T04:46:07.844Z,7.10
2022-08-17T04:47:07.825Z,6.50
2022-08-17T04:48:07.816Z,6.50
2022-08-17T04:49:07.814Z,6.20
2022-08-17T04:50:07.797Z,6.80
2022-08-17T04:51:07.786Z,6.50
2022-08-17T04:52:07.765Z,7.10
2022-08-17T04:53:07.746Z,6.40
2022-08-17T04:54:07.737Z,7.60
2022-08-17T04:55:07.751Z,6.20
2022-08-17T04:56:07.717Z,8.90
2022-08-17T04:57:07.700Z,6.70
2022-08-17T04:58:07.678Z,6.50
2022-08-17T04:59:07.691Z,6.20
2022-08-17T05:00:07.682Z,7.90
2022-08-17T05:01:07.843Z,7.30
2022-08-17T05:02:07.639Z,6.40
2022-08-17T05:03:07.644Z,7.50
2022-08-17T05:04:21.457Z,8.50
2022-08-17T05:05:08.699Z,9.30
2022-08-17T05:06:07.579Z,9.30
2022-08-17T05:07:07.566Z,9.00
2022-08-17T05:08:07.570Z,8.10
2022-08-17T05:09:07.549Z,7.90
2022-08-17T05:10:07.545Z,8.00
2022-08-17T05:11:07.520Z,7.80
2022-08-17T05:12:07.518Z,7.00
2022-08-17T05:13:07.493Z,7.40
2022-08-17T05:14:07.471Z,7.60
2022-08-17T05:15:07.498Z,8.60
2022-08-17T05:16:07.448Z,7.00
2022-08-17T05:17:11.450Z,6.50
2022-08-17T05:18:07.417Z,6.90
2022-08-17T05:19:07.416Z,6.90
2022-08-17T05:20:07.412Z,7.20
2022-08-17T05:21:07.397Z,7.00
2022-08-17T05:22:07.376Z,6.50
2022-08-17T05:23:07.348Z,7.80
2022-08-17T05:24:17.629Z,7.20
2022-08-17T05:25:08.346Z,6.80
2022-08-17T05:26:07.318Z,6.60
2022-08-17T05:27:07.304Z,8.00
2022-08-17T05:28:07.291Z,8.00
2022-08-17T05:29:07.281Z,7.00
2022-08-17T05:30:07.281Z,7.80
2022-08-17T05:31:07.251Z,7.40
2022-08-17T05:32:39.145Z,6.60
2022-08-17T05:33:08.217Z,6.80
2022-08-17T05:34:07.221Z,6.00
2022-08-17T05:35:07.220Z,6.10
2022-08-17T05:36:07.194Z,5.60
2022-08-17T05:37:07.170Z,7.10
2022-08-17T05:38:07.181Z,8.40
2022-08-17T05:39:07.149Z,6.90
2022-08-17T05:40:07.249Z,6.90
2022-08-17T05:41:07.125Z,6.40
2022-08-17T05:42:07.111Z,6.60
2022-08-17T05:43:07.106Z,6.80
2022-08-17T05:44:07.089Z,8.10
2022-08-17T05:45:07.081Z,7.30
2022-08-17T05:46:07.064Z,9.50
2022-08-17T05:47:07.047Z,9.90
2022-08-17T05:48:07.044Z,8.90
2022-08-17T05:49:07.019Z,6.70
2022-08-17T05:50:09.458Z,8.10
2022-08-17T05:51:06.992Z,8.00
2022-08-17T05:52:06.992Z,6.70
2022-08-17T05:53:07.082Z,9.50
2022-08-17T05:54:07.398Z,7.00
2022-08-17T05:55:06.953Z,3.80
2022-08-17T05:56:06.922Z,3.60
2022-08-17T05:57:07.920Z,3.80
2022-08-17T05:58:06.910Z,3.80
2022-08-17T05:59:06.890Z,3.70
2022-08-17T06:00:06.891Z,3.70
2022-08-17T06:01:06.888Z,3.80
2022-08-17T06:02:06.855Z,3.60
2022-08-17T06:03:06.842Z,3.70
2022-08-17T06:04:06.823Z,3.90
2022-08-17T06:05:06.850Z,3.70
2022-08-17T06:06:06.820Z,3.50
2022-08-17T06:07:06.826Z,3.70
2022-08-17T06:08:06.809Z,3.70
2022-08-17T06:09:06.775Z,3.60
2022-08-17T06:10:06.779Z,3.70
2022-08-17T06:11:06.761Z,3.70
2022-08-17T06:12:06.736Z,3.60
2022-08-17T06:13:07.754Z,3.70
2022-08-17T06:14:06.706Z,3.60
2022-08-17T06:15:06.686Z,4.00
2022-08-17T06:16:33.708Z,3.90
2022-08-17T06:17:07.673Z,3.80
2022-08-17T06:18:06.654Z,3.60
2022-08-17T06:19:06.664Z,3.80
2022-08-17T06:20:06.625Z,3.70
2022-08-17T06:21:06.647Z,3.50
2022-08-17T06:22:06.618Z,3.60
2022-08-17T06:23:06.586Z,3.30
2022-08-17T06:24:06.590Z,3.40
2022-08-17T06:25:10.467Z,3.50
2022-08-17T06:26:06.897Z,3.50
2022-08-17T06:27:06.548Z,3.70
2022-08-17T06:28:06.529Z,3.70
2022-08-17T06:29:06.530Z,3.40
2022-08-17T06:30:07.510Z,3.80
2022-08-17T06:31:06.691Z,3.50
2022-08-17T06:32:06.476Z,3.60
2022-08-17T06:33:06.461Z,3.60
2022-08-17T06:34:06.695Z,3.60
2022-08-17T06:35:06.442Z,3.40
2022-08-17T06:36:09.538Z,3.50
2022-08-17T06:37:06.408Z,3.60
2022-08-17T06:38:06.412Z,3.30
2022-08-17T06:39:06.410Z,3.40
2022-08-17T06:40:06.429Z,3.80
2022-08-17T06:41:06.350Z,3.50
2022-08-17T06:42:06.354Z,3.30
2022-08-17T06:43:07.350Z,3.40
2022-08-17T06:44:06.352Z,3.60
2022-08-17T06:45:06.331Z,3.10
2022-08-17T06:46:06.841Z,3.30
2022-08-17T06:47:06.291Z,3.40
2022-08-17T06:48:06.420Z,3.60
2022-08-17T06:49:06.278Z,4.40
2022-08-17T06:50:06.253Z,3.90
2022-08-17T06:51:06.309Z,4.30
2022-08-17T06:52:06.226Z,3.90
2022-08-17T06:53:06.221Z,3.60
2022-08-17T06:54:06.215Z,3.40
2022-08-17T06:55:06.234Z,3.70
2022-08-17T06:56:06.198Z,3.50
2022-08-17T06:57:06.163Z,3.30
2022-08-17T06:58:16.366Z,3.30
2022-08-17T06:59:07.142Z,3.50
2022-08-17T07:00:06.133Z,3.60
2022-08-17T07:01:06.195Z,3.30
2022-08-17T07:02:06.113Z,3.30
2022-08-17T07:03:06.241Z,3.40
2022-08-17T07:04:11.944Z,3.30
2022-08-17T07:05:07.075Z,3.30
2022-08-17T07:06:06.064Z,3.60
2022-08-17T07:07:06.073Z,3.20
2022-08-17T07:08:06.036Z,3.20
2022-08-17T07:09:06.025Z,3.30
2022-08-17T07:10:06.093Z,3.40
2022-08-17T07:11:05.997Z,3.00
2022-08-17T07:12:05.974Z,3.10
2022-08-17T07:13:05.985Z,3.20
2022-08-17T07:14:05.955Z,3.00
2022-08-17T07:15:05.937Z,3.10
2022-08-17T07:16:05.932Z,3.00
2022-08-17T07:17:05.926Z,3.10
2022-08-17T07:18:05.964Z,3.60
2022-08-17T07:19:05.898Z,4.30
2022-08-17T07:20:05.887Z,3.70
2022-08-17T07:21:05.875Z,4.00
2022-08-17T07:22:05.866Z,3.90
2022-08-17T07:23:05.867Z,3.60
2022-08-17T07:24:05.880Z,4.20
2022-08-17T07:25:05.817Z,4.60
2022-08-17T07:26:05.849Z,4.80
2022-08-17T07:27:06.565Z,4.90
2022-08-17T07:28:06.935Z,5.40
2022-08-17T07:29:05.788Z,5.50
2022-08-17T07:30:10.238Z,5.20
2022-08-17T07:31:06.749Z,5.10
2022-08-17T07:32:05.738Z,6.30
2022-08-17T07:33:05.953Z,5.60
2022-08-17T07:34:05.729Z,5.80
2022-08-17T07:35:05.706Z,5.70
2022-08-17T07:36:05.929Z,5.60
2022-08-17T07:37:05.680Z,6.00
2022-08-17T07:38:05.679Z,5.60
2022-08-17T07:39:06.848Z,15.10
2022-08-17T07:40:16.338Z,25.60
2022-08-17T07:41:06.654Z,26.70
2022-08-17T07:42:06.475Z,25.90
2022-08-17T07:43:05.609Z,27.00
2022-08-17T07:44:05.602Z,20.80
2022-08-17T07:45:05.717Z,22.90
2022-08-17T07:46:05.583Z,27.60
2022-08-17T07:47:05.569Z,23.00
2022-08-17T07:48:05.595Z,26.60
2022-08-17T07:49:05.536Z,24.10
2022-08-17T07:50:05.546Z,22.70
2022-08-17T07:51:05.564Z,22.80
2022-08-17T07:52:48.128Z,29.70
2022-08-17T07:53:06.503Z,22.30
2022-08-17T07:54:14.525Z,25.80
2022-08-17T07:55:06.490Z,21.70
2022-08-17T07:56:05.476Z,29.70
2022-08-17T07:57:05.476Z,25.50
2022-08-17T07:58:05.446Z,33.90
2022-08-17T07:59:05.424Z,30.90
2022-08-17T08:00:05.424Z,36.70
2022-08-17T08:01:06.413Z,31.70
2022-08-17T08:02:05.632Z,29.10
2022-08-17T08:03:05.382Z,22.70
2022-08-17T08:04:05.734Z,24.50
2022-08-17T08:05:06.529Z,26.70
2022-08-17T08:06:05.345Z,31.60
2022-08-17T08:07:05.339Z,34.80
2022-08-17T08:08:05.317Z,34.20
2022-08-17T08:09:05.312Z,30.40
2022-08-17T08:10:05.296Z,26.30
2022-08-17T08:11:05.306Z,33.60
2022-08-17T08:12:05.277Z,25.40
2022-08-17T08:13:05.255Z,32.10
2022-08-17T08:14:05.256Z,30.30
2022-08-17T08:15:05.230Z,33.40
2022-08-17T08:16:05.216Z,32.30
2022-08-17T08:17:05.248Z,35.70
2022-08-17T08:18:05.203Z,29.40
2022-08-17T08:19:05.188Z,29.30
2022-08-17T08:20:35.031Z,28.90
2022-08-17T08:21:06.169Z,36.80
2022-08-17T08:22:05.160Z,34.30
2022-08-17T08:23:05.141Z,27.50
2022-08-17T08:24:05.145Z,36.20
2022-08-17T08:25:05.112Z,30.80
2022-08-17T08:26:05.112Z,29.70
2022-08-17T08:27:05.100Z,25.00
2022-08-17T08:28:05.087Z,26.00
2022-08-17T08:29:05.152Z,24.40
2022-08-17T08:30:05.087Z,28.20
2022-08-17T08:31:05.056Z,34.40
2022-08-17T08:32:05.112Z,34.80
2022-08-17T08:33:05.024Z,31.30
2022-08-17T08:34:05.014Z,26.50
2022-08-17T08:35:04.992Z,29.30
2022-08-17T08:36:04.994Z,37.70
2022-08-17T08:37:17.682Z,39.20
2022-08-17T08:38:06.006Z,30.00
2022-08-17T08:39:04.958Z,25.80
2022-08-17T08:40:05.013Z,33.90
2022-08-17T08:41:04.931Z,29.40
2022-08-17T08:42:04.949Z,26.90
2022-08-17T08:43:04.927Z,33.40
2022-08-17T08:44:04.907Z,23.90
2022-08-17T08:45:05.429Z,25.90
2022-08-17T08:46:04.877Z,27.50
2022-08-17T08:47:04.878Z,32.00
2022-08-17T08:48:05.290Z,32.70
2022-08-17T08:49:11.991Z,29.60
2022-08-17T08:50:06.061Z,27.00
2022-08-17T08:51:04.825Z,30.50
2022-08-17T08:52:04.816Z,33.30
2022-08-17T08:53:04.804Z,29.50
2022-08-17T08:54:04.784Z,29.40
2022-08-17T08:55:04.796Z,27.00
2022-08-17T08:56:04.783Z,31.40
2022-08-17T08:57:24.229Z,32.00
2022-08-17T08:58:05.747Z,30.50
2022-08-17T08:59:04.717Z,33.40
2022-08-17T09:00:04.716Z,26.60
2022-08-17T09:01:04.752Z,26.50
2022-08-17T09:02:04.695Z,24.90
2022-08-17T09:03:04.676Z,29.00
2022-08-17T09:04:19.966Z,25.10
2022-08-17T09:05:20.600Z,26.20
2022-08-17T09:06:05.712Z,31.90
2022-08-17T09:07:05.626Z,31.90
2022-08-17T09:08:04.630Z,30.80
2022-08-17T09:09:04.608Z,28.70
2022-08-17T09:10:04.618Z,29.50
2022-08-17T09:11:04.585Z,27.60
2022-08-17T09:12:04.568Z,18.20
2022-08-17T09:13:09.889Z,19.40
2022-08-17T09:14:05.553Z,21.80
2022-08-17T09:15:08.286Z,19.50
2022-08-17T09:16:05.577Z,21.20
2022-08-17T09:17:04.499Z,19.60
2022-08-17T09:19:01.660Z,17.80
2022-08-17T09:19:05.642Z,25.80
2022-08-17T09:20:04.478Z,19.50
2022-08-17T09:21:04.473Z,22.10
2022-08-17T09:22:04.460Z,19.80
2022-08-17T09:23:04.433Z,19.30
2022-08-17T09:24:04.425Z,23.90
2022-08-17T09:25:04.423Z,22.70
2022-08-17T09:26:04.406Z,27.40
2022-08-17T09:27:04.382Z,24.50
2022-08-17T09:28:04.380Z,27.90
2022-08-17T09:29:04.361Z,29.00
2022-08-17T09:30:04.365Z,29.00
2022-08-17T09:31:04.343Z,29.40
2022-08-17T09:32:04.331Z,30.50
2022-08-17T09:33:04.314Z,28.60
2022-08-17T09:34:04.311Z,29.60
2022-08-17T09:35:04.312Z,29.80
2022-08-17T09:36:04.282Z,27.30
2022-08-17T09:37:04.275Z,33.10
2022-08-17T09:38:04.268Z,27.20
2022-08-17T09:39:04.260Z,24.10
2022-08-17T09:40:04.319Z,26.50
2022-08-17T09:41:04.227Z,24.90
2022-08-17T09:42:04.259Z,23.00
2022-08-17T09:43:04.202Z,22.90
2022-08-17T09:44:04.183Z,23.90
2022-08-17T09:45:04.176Z,24.00
2022-08-17T09:46:04.172Z,29.10
2022-08-17T09:47:04.159Z,23.20
2022-08-17T09:48:04.150Z,19.70
2022-08-17T09:49:04.137Z,17.90
2022-08-17T09:50:04.126Z,20.40
2022-08-17T09:51:06.413Z,18.50
2022-08-17T09:52:04.087Z,16.70
2022-08-17T09:53:04.079Z,24.80
2022-08-17T09:54:34.802Z,29.00
2022-08-17T09:55:05.069Z,26.70
2022-08-17T09:56:04.038Z,26.10
2022-08-17T09:57:27.945Z,24.70
2022-08-17T09:58:05.028Z,28.10
2022-08-17T09:59:03.999Z,27.80
2022-08-17T10:00:04.000Z,23.40
2022-08-17T10:01:04.066Z,25.50
2022-08-17T10:02:03.998Z,25.20
2022-08-17T10:03:03.971Z,29.10
2022-08-17T10:04:03.939Z,30.10
2022-08-17T10:05:03.948Z,33.50
2022-08-17T10:06:06.509Z,31.50
2022-08-17T10:07:03.910Z,23.80
2022-08-17T10:08:03.899Z,17.90
2022-08-17T10:09:03.909Z,15.90
2022-08-17T10:10:03.889Z,21.80
2022-08-17T10:11:03.875Z,18.10
2022-08-17T10:12:03.851Z,22.70
2022-08-17T10:13:03.829Z,18.50
2022-08-17T10:14:38.109Z,20.70
2022-08-17T10:15:08.036Z,29.30
2022-08-17T10:16:03.803Z,23.50
2022-08-17T10:17:03.791Z,22.50
2022-08-17T10:18:03.772Z,20.40
2022-08-17T10:19:03.790Z,24.70
2022-08-17T10:20:03.758Z,20.60
2022-08-17T10:21:03.743Z,24.10
2022-08-17T10:22:33.034Z,20.30
2022-08-17T10:23:04.720Z,23.70
2022-08-17T10:24:03.713Z,26.40
2022-08-17T10:25:22.711Z,19.80
2022-08-17T10:26:04.698Z,21.70
2022-08-17T10:27:03.694Z,22.80
2022-08-17T10:28:03.650Z,22.40
2022-08-17T10:29:03.662Z,22.00
2022-08-17T10:30:03.634Z,20.70
2022-08-17T10:31:33.557Z,23.40
2022-08-17T10:32:04.598Z,24.10
2022-08-17T10:33:03.604Z,29.00
2022-08-17T10:34:03.605Z,27.40
2022-08-17T10:35:03.586Z,35.00
2022-08-17T10:36:07.468Z,29.70
2022-08-17T10:37:04.563Z,27.00
2022-08-17T10:38:03.532Z,27.70
2022-08-17T10:39:03.565Z,21.90
2022-08-17T10:40:03.615Z,27.50
2022-08-17T10:41:03.567Z,21.80
2022-08-17T10:42:03.482Z,24.60
2022-08-17T10:43:03.485Z,26.00
2022-08-17T10:44:39.280Z,20.30
2022-08-17T10:45:04.445Z,17.10
2022-08-17T10:46:09.210Z,16.40
2022-08-17T10:47:04.426Z,18.00
2022-08-17T10:48:06.121Z,18.10
2022-08-17T10:49:03.416Z,20.20
2022-08-17T10:50:03.390Z,24.00
2022-08-17T10:51:03.411Z,20.20
2022-08-17T10:52:03.359Z,24.80
2022-08-17T10:53:03.392Z,21.50
2022-08-17T10:54:03.380Z,24.50
2022-08-17T10:55:03.328Z,21.80
2022-08-17T10:56:03.319Z,20.50
2022-08-17T10:57:03.308Z,19.50
2022-08-17T10:58:03.302Z,22.40
2022-08-17T10:59:03.298Z,20.70
2022-08-17T11:00:03.287Z,25.30
2022-08-17T11:01:03.297Z,26.10
2022-08-17T11:02:03.249Z,23.90
2022-08-17T11:03:03.245Z,31.10
2022-08-17T11:04:03.218Z,21.70
2022-08-17T11:05:03.210Z,24.50
2022-08-17T11:06:03.200Z,21.50
2022-08-17T11:07:03.201Z,27.10
2022-08-17T11:08:03.189Z,19.20
2022-08-17T11:09:03.169Z,29.00
2022-08-17T11:10:03.172Z,20.80
2022-08-17T11:11:03.147Z,23.00
2022-08-17T11:12:03.116Z,22.10
2022-08-17T11:13:03.131Z,26.50
2022-08-17T11:14:03.093Z,24.70
2022-08-17T11:15:03.122Z,25.10
2022-08-17T11:16:07.767Z,27.50
2022-08-17T11:17:04.063Z,25.50
2022-08-17T11:18:03.060Z,25.00
2022-08-17T11:19:03.033Z,22.00
2022-08-17T11:20:03.031Z,22.30
2022-08-17T11:21:03.013Z,23.30
2022-08-17T11:22:03.266Z,26.60
2022-08-17T11:23:03.009Z,23.40
2022-08-17T11:24:02.972Z,24.90
2022-08-17T11:25:02.967Z,27.70
2022-08-17T11:26:02.953Z,31.50
2022-08-17T11:27:02.957Z,20.10
2022-08-17T11:28:02.942Z,28.50
2022-08-17T11:29:02.958Z,33.50
2022-08-17T11:30:03.100Z,22.20
2022-08-17T11:31:02.894Z,19.20
2022-08-17T11:32:02.906Z,21.90
2022-08-17T11:33:02.880Z,15.50
2022-08-17T11:34:02.863Z,19.10
2022-08-17T11:35:02.844Z,17.30
2022-08-17T11:36:02.836Z,16.30
2022-08-17T11:37:02.825Z,17.70
2022-08-17T11:38:02.825Z,14.10
2022-08-17T11:39:02.820Z,27.10
2022-08-17T11:40:02.856Z,19.80
2022-08-17T11:41:02.790Z,18.70
2022-08-17T11:42:02.747Z,25.10
2022-08-17T11:43:02.760Z,16.60
2022-08-17T11:44:02.818Z,15.90
2022-08-17T11:45:02.726Z,18.50
2022-08-17T11:46:02.700Z,14.20
2022-08-17T11:47:02.697Z,13.80
2022-08-17T11:48:26.601Z,16.30
2022-08-17T11:49:03.678Z,15.00
2022-08-17T11:50:02.648Z,17.10
2022-08-17T11:51:02.672Z,19.40
2022-08-17T11:52:02.648Z,23.80
2022-08-17T11:53:02.649Z,23.30
2022-08-17T11:54:31.196Z,24.10
2022-08-17T11:55:24.083Z,31.90
2022-08-17T11:56:03.588Z,26.00
2022-08-17T11:57:02.607Z,26.50
2022-08-17T11:58:02.583Z,24.80
2022-08-17T11:59:02.552Z,25.40
2022-08-17T12:00:02.550Z,29.90
2022-08-17T12:01:02.557Z,27.70
2022-08-17T12:02:02.539Z,26.70
2022-08-17T12:03:02.508Z,24.90
2022-08-17T12:04:02.529Z,27.10
2022-08-17T12:05:02.475Z,28.80
2022-08-17T12:06:02.465Z,15.40
2022-08-17T12:07:02.462Z,16.80
2022-08-17T12:08:02.457Z,13.50
2022-08-17T12:09:02.433Z,17.40
2022-08-17T12:10:02.443Z,27.10
2022-08-17T12:11:02.410Z,20.90
2022-08-17T12:12:13.620Z,21.60
2022-08-17T12:13:03.383Z,22.70
2022-08-17T12:14:02.372Z,24.40
2022-08-17T12:15:11.447Z,24.70
2022-08-17T12:16:03.347Z,22.20
2022-08-17T12:17:02.367Z,23.10
2022-08-17T12:18:02.315Z,23.00
2022-08-17T12:19:02.317Z,28.20
2022-08-17T12:20:03.020Z,26.60
2022-08-17T12:21:02.291Z,26.30
2022-08-17T12:22:02.294Z,26.10
2022-08-17T12:23:02.325Z,30.70
2022-08-17T12:24:02.254Z,16.90
2022-08-17T12:25:02.263Z,20.60
2022-08-17T12:26:02.234Z,17.50
2022-08-17T12:27:02.269Z,12.40
2022-08-17T12:28:05.990Z,17.90
2022-08-17T12:29:03.197Z,14.10
2022-08-17T12:30:02.165Z,16.30
2022-08-17T12:31:02.170Z,17.20
2022-08-17T12:32:02.177Z,25.30
2022-08-17T12:33:02.136Z,24.30
2022-08-17T12:34:02.126Z,15.20
2022-08-17T12:35:02.112Z,12.00
2022-08-17T12:36:02.101Z,9.40
2022-08-17T12:37:02.135Z,13.60
2022-08-17T12:38:02.088Z,11.80
2022-08-17T12:39:13.772Z,10.60
2022-08-17T12:40:03.147Z,13.30
2022-08-17T12:41:02.039Z,19.00
2022-08-17T12:42:02.870Z,16.60
2022-08-17T12:43:02.038Z,18.30
2022-08-17T12:44:02.317Z,16.90
2022-08-17T12:45:02.003Z,23.60
2022-08-17T12:46:14.859Z,21.50
2022-08-17T12:47:02.981Z,16.20
2022-08-17T12:48:01.975Z,15.10
2022-08-17T12:49:01.950Z,15.00
2022-08-17T12:50:01.928Z,14.30
2022-08-17T12:51:01.930Z,21.40
2022-08-17T12:52:01.911Z,16.40
2022-08-17T12:53:02.643Z,17.80
2022-08-17T12:54:01.882Z,18.10
2022-08-17T12:55:01.924Z,18.70
2022-08-17T12:56:01.851Z,15.70
2022-08-17T12:57:01.860Z,23.10
2022-08-17T12:58:02.221Z,23.30
2022-08-17T12:59:01.831Z,27.60
2022-08-17T13:00:01.825Z,28.80
2022-08-17T13:01:01.792Z,22.90
2022-08-17T13:02:01.907Z,24.90